Nearby METAR Reports

 

KLOT - Romeoville/Chi, Illinois, USA
Distance from station: N 3mi, 5km
Updated: Wed, 17-Jul-2019 9:30am CDT
Clear
Clear
 Wind from calm
Wind: Calm
Temperature: 84°F , 29°C
Heat Index: 90°F , 32°C
Dew Point: 73°F , 23°C
Humidity: 70%
Barometer: 29.94 inHg , 1013.9 hPa
Clouds: Clear
Visibility: 10 miles , 16 km
2019/07/17 14:30 KLOT 171430Z AUTO 00000KT 10SM CLR 29/23 A2994 RMK AO2 T02870227
KJOT - Joliet, Illinois, USA
Distance from station: WSW 5mi, 7km
Updated: Wed, 17-Jul-2019 9:35am CDT
Clear
Clear
 Wind from calm
Wind: Calm
Temperature: 84°F , 29°C
Heat Index: 94°F , 34°C
Dew Point: 77°F , 25°C
Humidity: 79%
Barometer: 29.94 inHg , 1013.9 hPa
Clouds: Clear
Visibility: 10 miles , 16 km
2019/07/17 14:35 KJOT 171435Z AUTO 00000KT 10SM CLR 29/25 A2994 RMK AO2 T02850246
 
KC09 - Morris-Washburn, Illinois, USA
Distance from station: WSW 18mi, 29km
Updated: Wed, 17-Jul-2019 9:35am CDT
Clear
Clear
 Wind from calm
Wind: Calm
Temperature: 82°F , 28°C
Heat Index: 89°F , 32°C
Dew Point: 75°F , 24°C
Humidity: 79%
Barometer: 29.93 inHg , 1013.5 hPa
Clouds: Clear
Visibility: 10 miles , 16 km
2019/07/17 14:35 KC09 171435Z AUTO 00000KT 10SM CLR 28/24 A2993 RMK AO2 T02780237
KARR - Chicago/Aurora, Illinois, USA
Distance from station: NW 24mi, 39km
Updated: Wed, 17-Jul-2019 9:52am CDT
Clear
Clear
 Wind from calm
Wind: Calm
Temperature: 82°F , 28°C
Heat Index: 86°F , 30°C
Dew Point: 72°F , 22°C
Humidity: 70%
Barometer: 29.95 inHg , 1014.2 hPa
Clouds: Clear
Visibility: 10 miles , 16 km
2019/07/17 14:52 KARR 171452Z 00000KT 10SM CLR 28/22 A2995 RMK AO2 SLP134 T02830217 52013
 
KMDW - Chicago, Illinois, USA
Distance from station: NE 25mi, 39km
Updated: Wed, 17-Jul-2019 8:53am CDT
Mostly cloudy
Mostly cloudy
 Wind from N
Wind: N 5 mph , 7 km/h
Temperature: 84°F , 29°C
Heat Index: 89°F , 32°C
Dew Point: 72°F , 22°C
Humidity: 66%
Barometer: 29.91 inHg , 1012.9 hPa
Clouds: Mostly cloudy
Visibility: 10 miles , 16 km
Cloud details: Few Clouds 2500 ft
Mostly cloudy 15000 ft
Mostly cloudy 25000 ft
2019/07/17 13:53 KMDW 171353Z 36004KT 10SM FEW025 BKN150 BKN250 29/22 A2991 RMK AO2 SLP118 T02890222
KDPA - Chicago/Dupage, Illinois, USA
Distance from station: NNW 26mi, 42km
Updated: Wed, 17-Jul-2019 9:52am CDT
Clear
Clear
 Wind from calm
Wind: Calm
Temperature: 84°F , 29°C
Heat Index: 89°F , 32°C
Dew Point: 72°F , 22°C
Humidity: 66%
Barometer: 29.94 inHg , 1013.9 hPa
Clouds: Clear
Visibility: 10 miles , 16 km
2019/07/17 14:52 KDPA 171452Z 00000KT 10SM CLR 29/22 A2994 RMK AO2 SLP130 T02940222 51011
 
KIGQ - Chicago/Lansing, Illinois, USA
Distance from station: E 30mi, 48km
Updated: Wed, 17-Jul-2019 9:35am CDT
Partly cloudy
Partly cloudy
 Wind from calm
Wind: Calm
Temperature: 81°F , 27°C
Heat Index: 87°F , 31°C
Dew Point: 75°F , 24°C
Humidity: 84%
Barometer: 29.94 inHg , 1013.9 hPa
Clouds: Partly cloudy
Visibility: 10 miles , 16 km
Cloud details: Partly cloudy 2200 ft
2019/07/17 14:35 KIGQ 171435Z AUTO 00000KT 10SM SCT022 27/24 A2994 RMK AO2 T02740239
KORD - Chicago O'hare, Illinois, USA
Distance from station: NNE 31mi, 50km
Updated: Wed, 17-Jul-2019 9:51am CDT
Partly cloudy
Partly cloudy
 Wind from calm
Wind: Calm
Temperature: 84°F , 29°C
Heat Index: 89°F , 32°C
Dew Point: 72°F , 22°C
Humidity: 66%
Barometer: 29.93 inHg , 1013.5 hPa
Clouds: Partly cloudy
Visibility: 10 miles , 16 km
Cloud details: Few Clouds 3000 ft
Few Clouds 10000 ft
Partly cloudy 15000 ft
2019/07/17 14:51 KORD 171451Z 00000KT 10SM FEW030 FEW100 SCT150 29/22 A2993 RMK AO2 SLP128 T02890217 51012
 
KGYY - Gary Regional, Indiana, USA
Distance from station: E 36mi, 58km
Updated: Wed, 17-Jul-2019 9:45am CDT
Few Clouds
Few Clouds
 Wind from NNW
Wind: NNW 5 mph , 7 km/h
Temperature: 82°F , 28°C
Heat Index: 89°F , 32°C
Dew Point: 75°F , 24°C
Humidity: 79%
Barometer: 29.94 inHg , 1013.9 hPa
Clouds: Few Clouds
Visibility: 10 miles , 16 km
Cloud details: Few Clouds 5000 ft
Few Clouds 25000 ft
2019/07/17 14:45 KGYY 171445Z 33004KT 10SM FEW050 FEW250 28/24 A2994
KIKK - Kankakee, Illinois, USA
Distance from station: SSE 36mi, 58km
Updated: Wed, 17-Jul-2019 9:35am CDT
Clear
Clear
 Wind from calm
Wind: Calm
Temperature: 81°F , 27°C
Heat Index: 87°F , 31°C
Dew Point: 75°F , 24°C
Humidity: 84%
Barometer: 29.95 inHg , 1014.2 hPa
Clouds: Clear
Visibility: 10 miles , 16 km
2019/07/17 14:35 KIKK 171435Z AUTO 00000KT 10SM CLR 27/24 A2995 RMK AO2 T02710235
 
KDKB - De Kalb, Illinois, USA
Distance from station: NW 40mi, 65km
Updated: Wed, 17-Jul-2019 9:35am CDT
Clear
Clear
 Wind from calm
Wind: Calm
Temperature: 82°F , 28°C
Heat Index: 86°F , 30°C
Dew Point: 72°F , 22°C
Humidity: 70%
Barometer: 29.97 inHg , 1014.9 hPa
Clouds: Clear
Visibility: 10 miles , 16 km
2019/07/17 14:35 KDKB 171435Z AUTO 00000KT 10SM CLR 28/22 A2997 RMK AO2 T02800222
KPWK - Palwaukee, Illinois, USA
Distance from station: NNE 41mi, 65km
Updated: Wed, 17-Jul-2019 9:52am CDT
Clear
Clear
 Wind from calm
Wind: Calm
Temperature: 86°F , 30°C
Heat Index: 91°F , 33°C
Dew Point: 70°F , 21°C
Humidity: 59%
Barometer: 29.94 inHg , 1013.9 hPa
Clouds: Clear
Visibility: 10 miles , 16 km
2019/07/17 14:52 KPWK 171452Z 00000KT 10SM CLR 30/21 A2994 RMK AO2 SLP131 T03000211 51010